sensor_id;sensor_type;location;lat;lon;timestamp;temperature;humidity
6666;DHT22;3369;49.906;8.598;2023-04-24T00:00:08;11.10;99.90
6666;DHT22;3369;49.906;8.598;2023-04-24T00:02:34;11.10;99.90
6666;DHT22;3369;49.906;8.598;2023-04-24T00:05:04;11.10;99.90
6666;DHT22;3369;49.906;8.598;2023-04-24T00:07:30;11.10;99.90
6666;DHT22;3369;49.906;8.598;2023-04-24T00:09:56;11.10;99.90
6666;DHT22;3369;49.906;8.598;2023-04-24T00:12:22;11.10;99.90
6666;DHT22;3369;49.906;8.598;2023-04-24T00:14:47;11.10;99.90
6666;DHT22;3369;49.906;8.598;2023-04-24T00:17:13;11.10;99.90
6666;DHT22;3369;49.906;8.598;2023-04-24T00:19:39;11.10;99.90
6666;DHT22;3369;49.906;8.598;2023-04-24T00:22:04;11.10;99.90
6666;DHT22;3369;49.906;8.598;2023-04-24T00:24:30;11.10;99.90
6666;DHT22;3369;49.906;8.598;2023-04-24T00:26:56;11.10;99.90
6666;DHT22;3369;49.906;8.598;2023-04-24T00:29:22;11.10;99.90
6666;DHT22;3369;49.906;8.598;2023-04-24T00:31:47;11.10;99.90
6666;DHT22;3369;49.906;8.598;2023-04-24T00:34:13;11.10;99.90
6666;DHT22;3369;49.906;8.598;2023-04-24T00:36:39;11.10;99.90
6666;DHT22;3369;49.906;8.598;2023-04-24T00:39:05;11.10;99.90
6666;DHT22;3369;49.906;8.598;2023-04-24T00:41:34;11.20;99.90
6666;DHT22;3369;49.906;8.598;2023-04-24T00:44:00;11.10;99.90
6666;DHT22;3369;49.906;8.598;2023-04-24T00:46:26;11.20;99.90
6666;DHT22;3369;49.906;8.598;2023-04-24T00:48:52;11.10;99.90
6666;DHT22;3369;49.906;8.598;2023-04-24T00:51:17;11.10;99.90
6666;DHT22;3369;49.906;8.598;2023-04-24T00:53:43;11.00;99.90
6666;DHT22;3369;49.906;8.598;2023-04-24T00:56:09;11.00;99.90
6666;DHT22;3369;49.906;8.598;2023-04-24T00:58:35;10.90;99.90
6666;DHT22;3369;49.906;8.598;2023-04-24T01:01:01;10.90;99.90
6666;DHT22;3369;49.906;8.598;2023-04-24T01:03:29;10.90;99.90
6666;DHT22;3369;49.906;8.598;2023-04-24T01:05:57;10.80;99.90
6666;DHT22;3369;49.906;8.598;2023-04-24T01:29:05;10.80;99.90
6666;DHT22;3369;49.906;8.598;2023-04-24T01:31:32;10.80;99.90
6666;DHT22;3369;49.906;8.598;2023-04-24T01:33:58;10.80;99.90
6666;DHT22;3369;49.906;8.598;2023-04-24T01:36:24;10.70;99.90
6666;DHT22;3369;49.906;8.598;2023-04-24T01:38:51;10.70;99.90
6666;DHT22;3369;49.906;8.598;2023-04-24T01:41:17;10.70;99.90
6666;DHT22;3369;49.906;8.598;2023-04-24T01:43:43;10.70;99.90
6666;DHT22;3369;49.906;8.598;2023-04-24T01:46:08;10.70;99.90
6666;DHT22;3369;49.906;8.598;2023-04-24T01:48:34;10.70;99.90
6666;DHT22;3369;49.906;8.598;2023-04-24T01:51:00;10.80;99.90
6666;DHT22;3369;49.906;8.598;2023-04-24T01:53:26;10.80;99.90
6666;DHT22;3369;49.906;8.598;2023-04-24T01:55:52;10.80;99.90
6666;DHT22;3369;49.906;8.598;2023-04-24T01:58:17;10.80;99.90
6666;DHT22;3369;49.906;8.598;2023-04-24T02:00:43;10.80;99.90
6666;DHT22;3369;49.906;8.598;2023-04-24T02:03:09;10.80;99.90
6666;DHT22;3369;49.906;8.598;2023-04-24T02:05:34;10.80;99.90
6666;DHT22;3369;49.906;8.598;2023-04-24T02:08:00;10.80;99.90
6666;DHT22;3369;49.906;8.598;2023-04-24T02:10:25;10.80;99.90
6666;DHT22;3369;49.906;8.598;2023-04-24T02:12:52;10.80;99.90
6666;DHT22;3369;49.906;8.598;2023-04-24T02:15:17;10.80;99.90
6666;DHT22;3369;49.906;8.598;2023-04-24T02:17:43;10.80;99.90
6666;DHT22;3369;49.906;8.598;2023-04-24T02:20:09;10.80;99.90
6666;DHT22;3369;49.906;8.598;2023-04-24T02:22:34;10.90;99.90
6666;DHT22;3369;49.906;8.598;2023-04-24T02:25:00;10.80;99.90
6666;DHT22;3369;49.906;8.598;2023-04-24T02:27:26;10.80;99.90
6666;DHT22;3369;49.906;8.598;2023-04-24T02:29:51;10.80;99.90
6666;DHT22;3369;49.906;8.598;2023-04-24T02:32:17;10.80;99.90
6666;DHT22;3369;49.906;8.598;2023-04-24T02:34:42;10.80;99.90
6666;DHT22;3369;49.906;8.598;2023-04-24T02:37:08;10.80;99.90
6666;DHT22;3369;49.906;8.598;2023-04-24T02:39:34;10.80;99.90
6666;DHT22;3369;49.906;8.598;2023-04-24T02:41:59;10.70;99.90
6666;DHT22;3369;49.906;8.598;2023-04-24T02:44:25;10.70;99.90
6666;DHT22;3369;49.906;8.598;2023-04-24T02:46:51;10.70;99.90
6666;DHT22;3369;49.906;8.598;2023-04-24T02:49:16;10.70;99.90
6666;DHT22;3369;49.906;8.598;2023-04-24T02:51:42;10.60;99.90
6666;DHT22;3369;49.906;8.598;2023-04-24T02:54:08;10.60;99.90
6666;DHT22;3369;49.906;8.598;2023-04-24T02:56:35;10.60;99.90
6666;DHT22;3369;49.906;8.598;2023-04-24T02:59:01;10.60;99.90
6666;DHT22;3369;49.906;8.598;2023-04-24T03:01:26;10.60;99.90
6666;DHT22;3369;49.906;8.598;2023-04-24T03:03:52;10.70;99.90
6666;DHT22;3369;49.906;8.598;2023-04-24T03:06:18;10.70;99.90
6666;DHT22;3369;49.906;8.598;2023-04-24T03:08:43;10.70;99.90
6666;DHT22;3369;49.906;8.598;2023-04-24T03:11:09;10.70;99.90
6666;DHT22;3369;49.906;8.598;2023-04-24T03:13:34;10.60;99.90
6666;DHT22;3369;49.906;8.598;2023-04-24T03:16:00;10.60;99.90
6666;DHT22;3369;49.906;8.598;2023-04-24T03:18:26;10.60;99.90
6666;DHT22;3369;49.906;8.598;2023-04-24T03:20:51;10.60;99.90
6666;DHT22;3369;49.906;8.598;2023-04-24T03:23:17;10.60;99.90
6666;DHT22;3369;49.906;8.598;2023-04-24T03:25:42;10.60;99.90
6666;DHT22;3369;49.906;8.598;2023-04-24T03:28:08;10.60;99.90
6666;DHT22;3369;49.906;8.598;2023-04-24T03:30:34;10.50;99.90
6666;DHT22;3369;49.906;8.598;2023-04-24T03:33:00;10.50;99.90
6666;DHT22;3369;49.906;8.598;2023-04-24T03:35:26;10.50;99.90
6666;DHT22;3369;49.906;8.598;2023-04-24T03:37:51;10.40;99.90
6666;DHT22;3369;49.906;8.598;2023-04-24T03:40:17;10.40;99.90
6666;DHT22;3369;49.906;8.598;2023-04-24T03:42:43;10.30;99.90
6666;DHT22;3369;49.906;8.598;2023-04-24T03:45:09;10.30;99.90
6666;DHT22;3369;49.906;8.598;2023-04-24T03:47:34;10.30;99.90
6666;DHT22;3369;49.906;8.598;2023-04-24T03:50:00;10.20;99.90
6666;DHT22;3369;49.906;8.598;2023-04-24T03:52:26;10.20;99.90
6666;DHT22;3369;49.906;8.598;2023-04-24T03:54:51;10.20;99.90
6666;DHT22;3369;49.906;8.598;2023-04-24T03:57:17;10.10;99.90
6666;DHT22;3369;49.906;8.598;2023-04-24T03:59:42;10.00;99.90
6666;DHT22;3369;49.906;8.598;2023-04-24T04:02:08;10.10;99.90
6666;DHT22;3369;49.906;8.598;2023-04-24T04:04:34;10.00;99.90
6666;DHT22;3369;49.906;8.598;2023-04-24T04:06:59;10.00;99.90
6666;DHT22;3369;49.906;8.598;2023-04-24T04:09:26;10.00;99.90
6666;DHT22;3369;49.906;8.598;2023-04-24T04:11:52;10.00;99.90
6666;DHT22;3369;49.906;8.598;2023-04-24T04:14:18;9.90;99.90
6666;DHT22;3369;49.906;8.598;2023-04-24T04:16:44;9.90;99.90
6666;DHT22;3369;49.906;8.598;2023-04-24T04:19:10;9.90;99.90
6666;DHT22;3369;49.906;8.598;2023-04-24T04:21:35;9.90;99.90
6666;DHT22;3369;49.906;8.598;2023-04-24T04:24:01;9.90;99.90
6666;DHT22;3369;49.906;8.598;2023-04-24T04:26:27;9.90;99.90
6666;DHT22;3369;49.906;8.598;2023-04-24T04:28:52;9.80;99.90
6666;DHT22;3369;49.906;8.598;2023-04-24T04:31:19;9.80;99.90
6666;DHT22;3369;49.906;8.598;2023-04-24T04:33:46;9.70;99.90
6666;DHT22;3369;49.906;8.598;2023-04-24T04:36:11;9.70;99.90
6666;DHT22;3369;49.906;8.598;2023-04-24T04:38:37;9.60;99.90
6666;DHT22;3369;49.906;8.598;2023-04-24T04:41:03;9.60;99.90
6666;DHT22;3369;49.906;8.598;2023-04-24T04:43:29;9.50;99.90
6666;DHT22;3369;49.906;8.598;2023-04-24T04:45:57;9.50;99.90
6666;DHT22;3369;49.906;8.598;2023-04-24T04:48:22;9.50;99.90
6666;DHT22;3369;49.906;8.598;2023-04-24T04:50:48;9.50;99.90
6666;DHT22;3369;49.906;8.598;2023-04-24T04:53:14;9.40;99.90
6666;DHT22;3369;49.906;8.598;2023-04-24T04:55:39;9.40;99.90
6666;DHT22;3369;49.906;8.598;2023-04-24T04:58:05;9.40;99.90
6666;DHT22;3369;49.906;8.598;2023-04-24T05:00:31;9.40;99.90
6666;DHT22;3369;49.906;8.598;2023-04-24T05:03:01;9.40;99.90
6666;DHT22;3369;49.906;8.598;2023-04-24T05:05:27;9.40;99.90
6666;DHT22;3369;49.906;8.598;2023-04-24T05:07:53;9.40;99.90
6666;DHT22;3369;49.906;8.598;2023-04-24T05:10:18;9.40;99.90
6666;DHT22;3369;49.906;8.598;2023-04-24T05:12:44;9.40;99.90
6666;DHT22;3369;49.906;8.598;2023-04-24T05:15:10;9.50;99.90
6666;DHT22;3369;49.906;8.598;2023-04-24T05:17:36;9.50;99.90
6666;DHT22;3369;49.906;8.598;2023-04-24T05:20:02;9.50;99.90
6666;DHT22;3369;49.906;8.598;2023-04-24T05:22:31;9.50;99.90
6666;DHT22;3369;49.906;8.598;2023-04-24T05:24:56;9.50;99.90
6666;DHT22;3369;49.906;8.598;2023-04-24T05:27:22;9.60;99.90
6666;DHT22;3369;49.906;8.598;2023-04-24T05:29:48;9.60;99.90
6666;DHT22;3369;49.906;8.598;2023-04-24T05:32:14;9.70;99.90
6666;DHT22;3369;49.906;8.598;2023-04-24T05:34:39;9.70;99.90
6666;DHT22;3369;49.906;8.598;2023-04-24T05:37:05;9.70;99.90
6666;DHT22;3369;49.906;8.598;2023-04-24T05:39:34;9.80;99.90
6666;DHT22;3369;49.906;8.598;2023-04-24T05:42:00;9.90;99.90
6666;DHT22;3369;49.906;8.598;2023-04-24T05:44:27;10.00;99.90
6666;DHT22;3369;49.906;8.598;2023-04-24T05:46:52;10.00;99.90
6666;DHT22;3369;49.906;8.598;2023-04-24T05:49:18;10.20;99.90
6666;DHT22;3369;49.906;8.598;2023-04-24T05:51:44;10.40;99.90
6666;DHT22;3369;49.906;8.598;2023-04-24T05:54:10;10.60;99.90
6666;DHT22;3369;49.906;8.598;2023-04-24T05:56:37;10.90;99.90
6666;DHT22;3369;49.906;8.598;2023-04-24T05:59:03;11.00;99.90
6666;DHT22;3369;49.906;8.598;2023-04-24T06:01:29;11.30;99.90
6666;DHT22;3369;49.906;8.598;2023-04-24T06:03:55;11.50;99.90
6666;DHT22;3369;49.906;8.598;2023-04-24T06:06:20;11.60;99.90
6666;DHT22;3369;49.906;8.598;2023-04-24T06:08:46;11.70;99.90
6666;DHT22;3369;49.906;8.598;2023-04-24T06:11:12;11.50;99.90
6666;DHT22;3369;49.906;8.598;2023-04-24T06:13:37;11.40;99.90
6666;DHT22;3369;49.906;8.598;2023-04-24T06:16:04;11.30;99.90
6666;DHT22;3369;49.906;8.598;2023-04-24T06:18:29;11.30;99.90
6666;DHT22;3369;49.906;8.598;2023-04-24T06:20:55;11.10;99.90
6666;DHT22;3369;49.906;8.598;2023-04-24T06:23:21;10.90;99.90
6666;DHT22;3369;49.906;8.598;2023-04-24T06:25:47;10.80;99.90
6666;DHT22;3369;49.906;8.598;2023-04-24T06:28:12;10.80;99.90
6666;DHT22;3369;49.906;8.598;2023-04-24T06:30:38;10.70;99.90
6666;DHT22;3369;49.906;8.598;2023-04-24T06:33:03;10.50;99.90
6666;DHT22;3369;49.906;8.598;2023-04-24T06:35:29;10.50;99.90
6666;DHT22;3369;49.906;8.598;2023-04-24T06:37:55;10.40;99.90
6666;DHT22;3369;49.906;8.598;2023-04-24T06:40:22;10.50;99.90
6666;DHT22;3369;49.906;8.598;2023-04-24T06:42:47;10.60;99.90
6666;DHT22;3369;49.906;8.598;2023-04-24T06:45:13;10.70;99.90
6666;DHT22;3369;49.906;8.598;2023-04-24T06:47:39;10.90;99.90
6666;DHT22;3369;49.906;8.598;2023-04-24T06:50:05;10.90;99.90
6666;DHT22;3369;49.906;8.598;2023-04-24T07:12:38;10.80;99.90
6666;DHT22;3369;49.906;8.598;2023-04-24T07:15:05;10.80;99.90
6666;DHT22;3369;49.906;8.598;2023-04-24T07:17:31;10.80;99.90
6666;DHT22;3369;49.906;8.598;2023-04-24T07:19:57;10.80;99.90
6666;DHT22;3369;49.906;8.598;2023-04-24T07:22:22;10.80;99.90
6666;DHT22;3369;49.906;8.598;2023-04-24T07:24:48;10.80;99.90
6666;DHT22;3369;49.906;8.598;2023-04-24T07:27:14;10.80;99.90
6666;DHT22;3369;49.906;8.598;2023-04-24T07:29:40;10.90;99.90
6666;DHT22;3369;49.906;8.598;2023-04-24T07:32:06;10.90;99.90
6666;DHT22;3369;49.906;8.598;2023-04-24T07:34:33;10.90;99.90
6666;DHT22;3369;49.906;8.598;2023-04-24T07:36:58;11.00;99.90
6666;DHT22;3369;49.906;8.598;2023-04-24T07:39:24;11.10;99.90
6666;DHT22;3369;49.906;8.598;2023-04-24T07:41:51;11.20;99.90
6666;DHT22;3369;49.906;8.598;2023-04-24T07:44:17;11.30;99.90
6666;DHT22;3369;49.906;8.598;2023-04-24T07:46:43;11.40;99.90
6666;DHT22;3369;49.906;8.598;2023-04-24T07:49:08;11.40;99.90
6666;DHT22;3369;49.906;8.598;2023-04-24T07:51:34;11.50;99.90
6666;DHT22;3369;49.906;8.598;2023-04-24T07:54:04;11.70;99.90
6666;DHT22;3369;49.906;8.598;2023-04-24T07:56:32;11.80;99.90
6666;DHT22;3369;49.906;8.598;2023-04-24T07:58:58;11.80;99.90
6666;DHT22;3369;49.906;8.598;2023-04-24T08:01:24;11.70;99.90
6666;DHT22;3369;49.906;8.598;2023-04-24T08:03:50;11.70;99.90
6666;DHT22;3369;49.906;8.598;2023-04-24T08:06:16;11.70;99.90
6666;DHT22;3369;49.906;8.598;2023-04-24T08:08:42;11.60;99.90
6666;DHT22;3369;49.906;8.598;2023-04-24T08:11:08;11.60;99.90
6666;DHT22;3369;49.906;8.598;2023-04-24T08:13:34;11.70;99.90
6666;DHT22;3369;49.906;8.598;2023-04-24T08:15:59;11.80;99.90
6666;DHT22;3369;49.906;8.598;2023-04-24T08:18:25;11.90;99.90
6666;DHT22;3369;49.906;8.598;2023-04-24T08:20:51;11.90;99.90
6666;DHT22;3369;49.906;8.598;2023-04-24T08:23:17;11.90;99.90
6666;DHT22;3369;49.906;8.598;2023-04-24T08:25:43;12.00;99.90
6666;DHT22;3369;49.906;8.598;2023-04-24T08:28:09;12.10;99.90
6666;DHT22;3369;49.906;8.598;2023-04-24T08:30:35;12.20;99.90
6666;DHT22;3369;49.906;8.598;2023-04-24T08:33:00;12.40;99.30
6666;DHT22;3369;49.906;8.598;2023-04-24T08:35:26;12.50;99.70
6666;DHT22;3369;49.906;8.598;2023-04-24T08:37:52;12.70;99.60
6666;DHT22;3369;49.906;8.598;2023-04-24T08:40:22;12.90;99.00
6666;DHT22;3369;49.906;8.598;2023-04-24T08:42:54;13.00;98.70
6666;DHT22;3369;49.906;8.598;2023-04-24T08:45:21;13.00;99.10
6666;DHT22;3369;49.906;8.598;2023-04-24T08:47:47;13.00;99.20
6666;DHT22;3369;49.906;8.598;2023-04-24T08:50:13;13.00;99.20
6666;DHT22;3369;49.906;8.598;2023-04-24T08:52:38;13.00;99.30
6666;DHT22;3369;49.906;8.598;2023-04-24T08:55:05;12.90;99.30
6666;DHT22;3369;49.906;8.598;2023-04-24T08:57:31;12.80;99.50
6666;DHT22;3369;49.906;8.598;2023-04-24T08:59:58;12.70;99.20
6666;DHT22;3369;49.906;8.598;2023-04-24T09:02:24;12.60;98.80
6666;DHT22;3369;49.906;8.598;2023-04-24T09:04:50;12.30;99.00
6666;DHT22;3369;49.906;8.598;2023-04-24T09:07:17;12.20;99.40
6666;DHT22;3369;49.906;8.598;2023-04-24T09:09:43;12.20;99.70
6666;DHT22;3369;49.906;8.598;2023-04-24T09:12:09;12.10;99.90
6666;DHT22;3369;49.906;8.598;2023-04-24T09:14:36;12.10;99.80
6666;DHT22;3369;49.906;8.598;2023-04-24T09:17:06;12.10;99.40
6666;DHT22;3369;49.906;8.598;2023-04-24T09:19:32;12.00;99.20
6666;DHT22;3369;49.906;8.598;2023-04-24T09:21:57;11.90;99.40
6666;DHT22;3369;49.906;8.598;2023-04-24T09:24:23;11.90;99.70
6666;DHT22;3369;49.906;8.598;2023-04-24T09:26:55;11.80;99.70
6666;DHT22;3369;49.906;8.598;2023-04-24T09:29:23;11.70;99.60
6666;DHT22;3369;49.906;8.598;2023-04-24T09:31:48;11.70;99.70
6666;DHT22;3369;49.906;8.598;2023-04-24T09:34:14;11.70;99.90
6666;DHT22;3369;49.906;8.598;2023-04-24T09:36:42;11.70;99.90
6666;DHT22;3369;49.906;8.598;2023-04-24T09:39:13;11.70;99.90
6666;DHT22;3369;49.906;8.598;2023-04-24T09:44:15;11.80;99.90
6666;DHT22;3369;49.906;8.598;2023-04-24T09:46:42;11.80;99.90
6666;DHT22;3369;49.906;8.598;2023-04-24T09:49:13;11.90;99.90
6666;DHT22;3369;49.906;8.598;2023-04-24T09:51:41;11.90;99.90
6666;DHT22;3369;49.906;8.598;2023-04-24T09:54:17;11.80;99.90
6666;DHT22;3369;49.906;8.598;2023-04-24T09:56:45;11.80;99.90
6666;DHT22;3369;49.906;8.598;2023-04-24T09:59:12;11.80;99.90
6666;DHT22;3369;49.906;8.598;2023-04-24T10:01:38;11.80;99.90
6666;DHT22;3369;49.906;8.598;2023-04-24T10:04:27;11.80;99.90
6666;DHT22;3369;49.906;8.598;2023-04-24T10:06:56;11.80;99.90
6666;DHT22;3369;49.906;8.598;2023-04-24T10:09:24;11.90;99.90
6666;DHT22;3369;49.906;8.598;2023-04-24T10:11:51;12.00;99.90
6666;DHT22;3369;49.906;8.598;2023-04-24T10:14:20;12.10;99.90
6666;DHT22;3369;49.906;8.598;2023-04-24T10:16:47;12.20;99.90
6666;DHT22;3369;49.906;8.598;2023-04-24T10:19:14;12.10;99.90
6666;DHT22;3369;49.906;8.598;2023-04-24T10:21:42;12.10;99.90
6666;DHT22;3369;49.906;8.598;2023-04-24T10:24:13;12.00;99.90
6666;DHT22;3369;49.906;8.598;2023-04-24T10:26:40;11.90;99.90
6666;DHT22;3369;49.906;8.598;2023-04-24T10:29:06;11.90;99.90
6666;DHT22;3369;49.906;8.598;2023-04-24T10:31:36;11.90;99.90
6666;DHT22;3369;49.906;8.598;2023-04-24T10:34:05;11.90;99.90
6666;DHT22;3369;49.906;8.598;2023-04-24T10:36:32;11.90;99.90
6666;DHT22;3369;49.906;8.598;2023-04-24T10:39:01;12.00;99.90
6666;DHT22;3369;49.906;8.598;2023-04-24T10:41:27;12.20;99.90
6666;DHT22;3369;49.906;8.598;2023-04-24T10:44:12;12.40;99.90
6666;DHT22;3369;49.906;8.598;2023-04-24T10:46:39;12.50;99.90
6666;DHT22;3369;49.906;8.598;2023-04-24T10:49:08;12.60;99.90
6666;DHT22;3369;49.906;8.598;2023-04-24T10:51:45;12.60;99.90
6666;DHT22;3369;49.906;8.598;2023-04-24T10:54:41;12.50;99.90
6666;DHT22;3369;49.906;8.598;2023-04-24T11:00:09;12.30;99.90
6666;DHT22;3369;49.906;8.598;2023-04-24T11:02:37;12.30;99.90
6666;DHT22;3369;49.906;8.598;2023-04-24T11:05:04;12.20;99.90
6666;DHT22;3369;49.906;8.598;2023-04-24T11:07:29;12.10;99.90
6666;DHT22;3369;49.906;8.598;2023-04-24T11:09:59;12.00;99.90
6666;DHT22;3369;49.906;8.598;2023-04-24T11:12:26;11.90;99.90
6666;DHT22;3369;49.906;8.598;2023-04-24T11:17:35;11.60;99.90
6666;DHT22;3369;49.906;8.598;2023-04-24T11:20:07;11.50;99.90
6666;DHT22;3369;49.906;8.598;2023-04-24T11:22:34;11.30;99.90
6666;DHT22;3369;49.906;8.598;2023-04-24T11:25:02;11.20;99.90
6666;DHT22;3369;49.906;8.598;2023-04-24T11:27:30;11.00;99.90
6666;DHT22;3369;49.906;8.598;2023-04-24T11:35:15;10.70;99.90
6666;DHT22;3369;49.906;8.598;2023-04-24T11:37:46;10.60;99.90
6666;DHT22;3369;49.906;8.598;2023-04-24T11:40:15;10.60;99.90
6666;DHT22;3369;49.906;8.598;2023-04-24T11:42:45;10.50;99.90
6666;DHT22;3369;49.906;8.598;2023-04-24T11:45:12;10.40;99.90
6666;DHT22;3369;49.906;8.598;2023-04-24T11:47:38;10.40;99.90
6666;DHT22;3369;49.906;8.598;2023-04-24T11:50:06;10.40;99.90
6666;DHT22;3369;49.906;8.598;2023-04-24T11:52:36;10.50;99.90
6666;DHT22;3369;49.906;8.598;2023-04-24T11:55:02;10.40;99.90
6666;DHT22;3369;49.906;8.598;2023-04-24T11:57:29;10.40;99.90
6666;DHT22;3369;49.906;8.598;2023-04-24T12:00:00;10.30;99.90
6666;DHT22;3369;49.906;8.598;2023-04-24T12:02:27;10.30;99.90
6666;DHT22;3369;49.906;8.598;2023-04-24T12:04:53;10.30;99.90
6666;DHT22;3369;49.906;8.598;2023-04-24T12:07:19;10.30;99.90
6666;DHT22;3369;49.906;8.598;2023-04-24T12:09:48;10.30;99.90
6666;DHT22;3369;49.906;8.598;2023-04-24T12:12:15;10.30;99.90
6666;DHT22;3369;49.906;8.598;2023-04-24T12:14:49;10.40;99.90
6666;DHT22;3369;49.906;8.598;2023-04-24T12:17:16;10.50;99.90
6666;DHT22;3369;49.906;8.598;2023-04-24T12:19:48;10.70;99.90
6666;DHT22;3369;49.906;8.598;2023-04-24T12:22:14;10.90;99.90
6666;DHT22;3369;49.906;8.598;2023-04-24T12:25:00;11.20;99.90
6666;DHT22;3369;49.906;8.598;2023-04-24T12:27:28;11.50;99.90
6666;DHT22;3369;49.906;8.598;2023-04-24T12:29:58;11.70;99.90
6666;DHT22;3369;49.906;8.598;2023-04-24T12:32:24;11.90;99.90
6666;DHT22;3369;49.906;8.598;2023-04-24T12:34:51;12.10;99.90
6666;DHT22;3369;49.906;8.598;2023-04-24T12:37:17;12.30;99.90
6666;DHT22;3369;49.906;8.598;2023-04-24T12:40:06;12.40;99.90
6666;DHT22;3369;49.906;8.598;2023-04-24T12:42:33;12.60;99.90
6666;DHT22;3369;49.906;8.598;2023-04-24T12:45:00;12.70;99.90
6666;DHT22;3369;49.906;8.598;2023-04-24T12:47:27;12.80;99.90
6666;DHT22;3369;49.906;8.598;2023-04-24T12:49:53;12.90;99.90
6666;DHT22;3369;49.906;8.598;2023-04-24T12:52:24;12.90;99.90
6666;DHT22;3369;49.906;8.598;2023-04-24T12:54:52;12.90;99.90
6666;DHT22;3369;49.906;8.598;2023-04-24T12:57:18;12.80;99.90
6666;DHT22;3369;49.906;8.598;2023-04-24T12:59:44;12.80;99.90
6666;DHT22;3369;49.906;8.598;2023-04-24T13:02:11;12.70;99.90
6666;DHT22;3369;49.906;8.598;2023-04-24T13:04:36;12.60;99.90
6666;DHT22;3369;49.906;8.598;2023-04-24T13:07:02;12.50;99.90
6666;DHT22;3369;49.906;8.598;2023-04-24T13:29:09;12.90;99.90
6666;DHT22;3369;49.906;8.598;2023-04-24T13:31:35;13.00;99.90
6666;DHT22;3369;49.906;8.598;2023-04-24T13:34:02;13.20;99.90
6666;DHT22;3369;49.906;8.598;2023-04-24T13:36:28;13.30;99.90
6666;DHT22;3369;49.906;8.598;2023-04-24T13:38:53;13.30;99.90
6666;DHT22;3369;49.906;8.598;2023-04-24T13:41:19;13.30;99.50
6666;DHT22;3369;49.906;8.598;2023-04-24T13:43:45;13.20;99.30
6666;DHT22;3369;49.906;8.598;2023-04-24T13:46:10;13.20;98.80
6666;DHT22;3369;49.906;8.598;2023-04-24T13:48:36;13.20;98.60
6666;DHT22;3369;49.906;8.598;2023-04-24T13:51:02;13.10;98.20
6666;DHT22;3369;49.906;8.598;2023-04-24T13:53:27;13.00;98.60
6666;DHT22;3369;49.906;8.598;2023-04-24T13:55:53;12.90;98.70
6666;DHT22;3369;49.906;8.598;2023-04-24T13:58:19;12.90;98.60
6666;DHT22;3369;49.906;8.598;2023-04-24T14:00:44;12.80;98.20
6666;DHT22;3369;49.906;8.598;2023-04-24T14:03:10;12.80;98.30
6666;DHT22;3369;49.906;8.598;2023-04-24T14:05:36;12.80;98.60
6666;DHT22;3369;49.906;8.598;2023-04-24T14:08:02;12.80;98.70
6666;DHT22;3369;49.906;8.598;2023-04-24T14:10:27;12.80;99.10
6666;DHT22;3369;49.906;8.598;2023-04-24T14:12:53;12.90;99.30
6666;DHT22;3369;49.906;8.598;2023-04-24T14:15:19;12.90;99.40
6666;DHT22;3369;49.906;8.598;2023-04-24T14:17:45;12.90;99.30
6666;DHT22;3369;49.906;8.598;2023-04-24T14:20:12;12.90;99.40
6666;DHT22;3369;49.906;8.598;2023-04-24T14:22:38;12.80;99.40
6666;DHT22;3369;49.906;8.598;2023-04-24T14:25:04;12.80;97.70
6666;DHT22;3369;49.906;8.598;2023-04-24T14:27:32;12.80;97.90
6666;DHT22;3369;49.906;8.598;2023-04-24T14:29:57;12.80;97.80
6666;DHT22;3369;49.906;8.598;2023-04-24T14:32:23;12.80;97.50
6666;DHT22;3369;49.906;8.598;2023-04-24T14:34:49;12.80;97.40
6666;DHT22;3369;49.906;8.598;2023-04-24T14:37:15;12.80;97.20
6666;DHT22;3369;49.906;8.598;2023-04-24T14:39:40;12.80;97.40
6666;DHT22;3369;49.906;8.598;2023-04-24T14:42:06;12.80;97.00
6666;DHT22;3369;49.906;8.598;2023-04-24T14:44:32;12.70;97.20
6666;DHT22;3369;49.906;8.598;2023-04-24T14:46:58;12.70;96.90
6666;DHT22;3369;49.906;8.598;2023-04-24T14:49:24;12.70;97.00
6666;DHT22;3369;49.906;8.598;2023-04-24T14:51:50;12.70;96.90
6666;DHT22;3369;49.906;8.598;2023-04-24T14:54:15;12.70;97.00
6666;DHT22;3369;49.906;8.598;2023-04-24T14:56:41;12.60;97.20
6666;DHT22;3369;49.906;8.598;2023-04-24T14:59:09;12.60;97.60
6666;DHT22;3369;49.906;8.598;2023-04-24T15:01:35;12.60;97.80
6666;DHT22;3369;49.906;8.598;2023-04-24T15:04:00;12.70;98.30
6666;DHT22;3369;49.906;8.598;2023-04-24T15:06:26;12.70;98.40
6666;DHT22;3369;49.906;8.598;2023-04-24T15:08:52;12.70;97.90
6666;DHT22;3369;49.906;8.598;2023-04-24T15:11:17;12.70;97.80
6666;DHT22;3369;49.906;8.598;2023-04-24T15:13:43;12.80;97.60
6666;DHT22;3369;49.906;8.598;2023-04-24T15:16:10;12.70;97.80
6666;DHT22;3369;49.906;8.598;2023-04-24T15:18:36;12.80;98.00
6666;DHT22;3369;49.906;8.598;2023-04-24T15:21:02;12.90;98.20
6666;DHT22;3369;49.906;8.598;2023-04-24T15:23:28;12.90;98.10
6666;DHT22;3369;49.906;8.598;2023-04-24T15:25:53;13.00;97.70
6666;DHT22;3369;49.906;8.598;2023-04-24T15:28:19;13.20;97.30
6666;DHT22;3369;49.906;8.598;2023-04-24T15:30:47;13.30;97.60
6666;DHT22;3369;49.906;8.598;2023-04-24T15:33:12;13.40;96.80
6666;DHT22;3369;49.906;8.598;2023-04-24T15:35:38;13.40;96.30
6666;DHT22;3369;49.906;8.598;2023-04-24T15:38:04;13.40;96.90
6666;DHT22;3369;49.906;8.598;2023-04-24T15:40:30;13.50;97.00
6666;DHT22;3369;49.906;8.598;2023-04-24T15:42:56;13.50;97.20
6666;DHT22;3369;49.906;8.598;2023-04-24T15:45:22;13.40;96.90
6666;DHT22;3369;49.906;8.598;2023-04-24T15:47:48;13.50;96.80
6666;DHT22;3369;49.906;8.598;2023-04-24T15:50:15;13.50;96.40
6666;DHT22;3369;49.906;8.598;2023-04-24T15:52:42;13.50;96.90
6666;DHT22;3369;49.906;8.598;2023-04-24T15:55:08;13.60;96.70
6666;DHT22;3369;49.906;8.598;2023-04-24T15:57:34;13.60;96.60
6666;DHT22;3369;49.906;8.598;2023-04-24T16:00:00;13.80;97.00
6666;DHT22;3369;49.906;8.598;2023-04-24T16:02:26;13.80;96.60
6666;DHT22;3369;49.906;8.598;2023-04-24T16:04:52;13.80;96.60
6666;DHT22;3369;49.906;8.598;2023-04-24T16:07:18;13.80;96.50
6666;DHT22;3369;49.906;8.598;2023-04-24T16:09:44;13.80;96.50
6666;DHT22;3369;49.906;8.598;2023-04-24T16:12:10;13.70;96.70
6666;DHT22;3369;49.906;8.598;2023-04-24T16:14:36;13.60;96.60
6666;DHT22;3369;49.906;8.598;2023-04-24T16:17:03;13.40;96.60
6666;DHT22;3369;49.906;8.598;2023-04-24T16:19:29;13.40;96.90
6666;DHT22;3369;49.906;8.598;2023-04-24T16:21:55;13.20;97.10
6666;DHT22;3369;49.906;8.598;2023-04-24T16:24:22;13.20;97.10
6666;DHT22;3369;49.906;8.598;2023-04-24T16:26:51;13.10;97.20
6666;DHT22;3369;49.906;8.598;2023-04-24T16:29:18;13.00;97.20
6666;DHT22;3369;49.906;8.598;2023-04-24T16:31:44;13.00;97.30
6666;DHT22;3369;49.906;8.598;2023-04-24T16:34:10;12.90;97.40
6666;DHT22;3369;49.906;8.598;2023-04-24T16:36:36;12.90;97.70
6666;DHT22;3369;49.906;8.598;2023-04-24T16:39:02;12.90;98.10
6666;DHT22;3369;49.906;8.598;2023-04-24T16:41:30;12.80;98.40
6666;DHT22;3369;49.906;8.598;2023-04-24T16:43:56;12.80;99.60
6666;DHT22;3369;49.906;8.598;2023-04-24T16:46:21;12.70;99.90
6666;DHT22;3369;49.906;8.598;2023-04-24T16:48:47;12.60;99.90
6666;DHT22;3369;49.906;8.598;2023-04-24T16:51:13;12.50;99.90
6666;DHT22;3369;49.906;8.598;2023-04-24T16:53:39;12.40;99.90
6666;DHT22;3369;49.906;8.598;2023-04-24T16:56:04;12.40;99.90
6666;DHT22;3369;49.906;8.598;2023-04-24T16:58:30;12.40;99.90
6666;DHT22;3369;49.906;8.598;2023-04-24T17:00:56;12.40;99.90
6666;DHT22;3369;49.906;8.598;2023-04-24T17:03:22;12.40;99.90
6666;DHT22;3369;49.906;8.598;2023-04-24T17:05:49;12.30;99.90
6666;DHT22;3369;49.906;8.598;2023-04-24T17:08:15;12.20;99.90
6666;DHT22;3369;49.906;8.598;2023-04-24T17:10:41;12.20;99.90